sensor_id;sensor_type;location;lat;lon;timestamp;P1;durP1;ratioP1;P2;durP2;ratioP2
46334;SDS011;32051;48.882;9.210;2022-10-17T00:00:23;6.53;;;5.30;;
46334;SDS011;32051;48.882;9.210;2022-10-17T00:02:49;18.48;;;5.82;;
46334;SDS011;32051;48.882;9.210;2022-10-17T00:05:15;11.32;;;5.60;;
46334;SDS011;32051;48.882;9.210;2022-10-17T00:07:41;9.05;;;7.10;;
46334;SDS011;32051;48.882;9.210;2022-10-17T00:10:07;13.10;;;6.07;;
46334;SDS011;32051;48.882;9.210;2022-10-17T00:12:34;15.73;;;6.63;;
46334;SDS011;32051;48.882;9.210;2022-10-17T00:15:01;20.58;;;5.85;;
46334;SDS011;32051;48.882;9.210;2022-10-17T00:17:27;10.05;;;6.15;;
46334;SDS011;32051;48.882;9.210;2022-10-17T00:19:53;18.48;;;6.43;;
46334;SDS011;32051;48.882;9.210;2022-10-17T00:22:19;10.85;;;6.43;;
46334;SDS011;32051;48.882;9.210;2022-10-17T00:24:45;21.65;;;6.57;;
46334;SDS011;32051;48.882;9.210;2022-10-17T00:27:11;22.02;;;5.78;;
46334;SDS011;32051;48.882;9.210;2022-10-17T00:29:37;18.67;;;5.60;;
46334;SDS011;32051;48.882;9.210;2022-10-17T00:32:04;14.43;;;4.43;;
46334;SDS011;32051;48.882;9.210;2022-10-17T00:34:30;9.88;;;4.00;;
46334;SDS011;32051;48.882;9.210;2022-10-17T00:36:56;12.57;;;4.00;;
46334;SDS011;32051;48.882;9.210;2022-10-17T00:39:23;12.35;;;5.22;;
46334;SDS011;32051;48.882;9.210;2022-10-17T00:41:49;11.02;;;3.40;;
46334;SDS011;32051;48.882;9.210;2022-10-17T00:46:58;15.50;;;4.55;;
46334;SDS011;32051;48.882;9.210;2022-10-17T00:49:25;16.52;;;4.60;;
46334;SDS011;32051;48.882;9.210;2022-10-17T00:51:53;13.68;;;3.33;;
46334;SDS011;32051;48.882;9.210;2022-10-17T00:54:20;15.77;;;4.65;;
46334;SDS011;32051;48.882;9.210;2022-10-17T00:56:47;14.02;;;5.18;;
46334;SDS011;32051;48.882;9.210;2022-10-17T00:59:14;29.45;;;5.45;;
46334;SDS011;32051;48.882;9.210;2022-10-17T01:01:42;14.50;;;4.85;;
46334;SDS011;32051;48.882;9.210;2022-10-17T01:04:11;6.75;;;3.88;;
46334;SDS011;32051;48.882;9.210;2022-10-17T01:06:38;11.00;;;3.90;;
46334;SDS011;32051;48.882;9.210;2022-10-17T01:09:04;15.10;;;4.15;;
46334;SDS011;32051;48.882;9.210;2022-10-17T01:12:14;13.13;;;4.40;;
46334;SDS011;32051;48.882;9.210;2022-10-17T01:14:36;15.02;;;4.18;;
46334;SDS011;32051;48.882;9.210;2022-10-17T01:22:06;21.48;;;4.15;;
46334;SDS011;32051;48.882;9.210;2022-10-17T01:32:17;8.32;;;3.78;;
46334;SDS011;32051;48.882;9.210;2022-10-17T01:37:27;7.20;;;3.85;;
46334;SDS011;32051;48.882;9.210;2022-10-17T01:47:21;13.32;;;4.13;;
46334;SDS011;32051;48.882;9.210;2022-10-17T01:49:48;10.40;;;4.32;;
46334;SDS011;32051;48.882;9.210;2022-10-17T01:52:20;20.70;;;4.85;;
46334;SDS011;32051;48.882;9.210;2022-10-17T01:57:23;12.45;;;3.97;;
46334;SDS011;32051;48.882;9.210;2022-10-17T01:59:52;7.20;;;3.60;;
46334;SDS011;32051;48.882;9.210;2022-10-17T02:02:19;5.57;;;3.95;;
46334;SDS011;32051;48.882;9.210;2022-10-17T02:04:46;7.65;;;3.78;;
46334;SDS011;32051;48.882;9.210;2022-10-17T02:07:13;12.35;;;3.78;;
46334;SDS011;32051;48.882;9.210;2022-10-17T02:17:48;13.57;;;5.82;;
46334;SDS011;32051;48.882;9.210;2022-10-17T02:20:23;13.10;;;3.40;;
46334;SDS011;32051;48.882;9.210;2022-10-17T02:23:36;11.50;;;3.28;;
46334;SDS011;32051;48.882;9.210;2022-10-17T02:25:41;9.02;;;3.53;;
46334;SDS011;32051;48.882;9.210;2022-10-17T02:30:36;5.72;;;3.33;;
46334;SDS011;32051;48.882;9.210;2022-10-17T02:33:05;10.27;;;4.10;;
46334;SDS011;32051;48.882;9.210;2022-10-17T02:35:35;6.38;;;3.28;;
46334;SDS011;32051;48.882;9.210;2022-10-17T02:38:02;5.25;;;3.30;;
46334;SDS011;32051;48.882;9.210;2022-10-17T02:40:29;20.45;;;3.67;;
46334;SDS011;32051;48.882;9.210;2022-10-17T02:42:57;8.45;;;3.72;;
46334;SDS011;32051;48.882;9.210;2022-10-17T02:45:24;5.05;;;3.05;;
46334;SDS011;32051;48.882;9.210;2022-10-17T02:48:10;15.68;;;3.25;;
46334;SDS011;32051;48.882;9.210;2022-10-17T02:50:45;15.23;;;3.15;;
46334;SDS011;32051;48.882;9.210;2022-10-17T02:53:14;7.45;;;3.38;;
46334;SDS011;32051;48.882;9.210;2022-10-17T02:55:47;9.52;;;3.38;;
46334;SDS011;32051;48.882;9.210;2022-10-17T02:58:17;23.05;;;4.45;;
46334;SDS011;32051;48.882;9.210;2022-10-17T03:00:44;12.60;;;3.83;;
46334;SDS011;32051;48.882;9.210;2022-10-17T03:03:22;6.78;;;3.25;;
46334;SDS011;32051;48.882;9.210;2022-10-17T03:05:49;9.52;;;3.22;;
46334;SDS011;32051;48.882;9.210;2022-10-17T03:08:16;12.70;;;3.50;;
46334;SDS011;32051;48.882;9.210;2022-10-17T03:10:42;18.27;;;3.50;;
46334;SDS011;32051;48.882;9.210;2022-10-17T03:13:08;8.45;;;3.63;;
46334;SDS011;32051;48.882;9.210;2022-10-17T03:15:38;3.78;;;3.40;;
46334;SDS011;32051;48.882;9.210;2022-10-17T03:18:04;11.00;;;5.03;;
46334;SDS011;32051;48.882;9.210;2022-10-17T03:20:30;3.72;;;3.42;;
46334;SDS011;32051;48.882;9.210;2022-10-17T03:22:56;14.40;;;4.40;;
46334;SDS011;32051;48.882;9.210;2022-10-17T03:25:22;13.40;;;4.28;;
46334;SDS011;32051;48.882;9.210;2022-10-17T03:27:49;4.50;;;4.03;;
46334;SDS011;32051;48.882;9.210;2022-10-17T03:30:15;16.33;;;3.85;;
46334;SDS011;32051;48.882;9.210;2022-10-17T03:32:41;18.80;;;5.40;;
46334;SDS011;32051;48.882;9.210;2022-10-17T03:35:07;17.48;;;3.92;;
46334;SDS011;32051;48.882;9.210;2022-10-17T03:37:33;6.50;;;3.72;;
46334;SDS011;32051;48.882;9.210;2022-10-17T03:39:59;12.90;;;4.25;;
46334;SDS011;32051;48.882;9.210;2022-10-17T03:42:25;6.13;;;4.10;;
46334;SDS011;32051;48.882;9.210;2022-10-17T03:44:52;6.22;;;3.60;;
46334;SDS011;32051;48.882;9.210;2022-10-17T03:47:18;5.97;;;3.50;;
46334;SDS011;32051;48.882;9.210;2022-10-17T03:49:44;14.77;;;3.90;;
46334;SDS011;32051;48.882;9.210;2022-10-17T03:52:13;10.27;;;4.40;;
46334;SDS011;32051;48.882;9.210;2022-10-17T03:54:40;10.88;;;4.60;;
46334;SDS011;32051;48.882;9.210;2022-10-17T03:57:06;19.85;;;5.35;;
46334;SDS011;32051;48.882;9.210;2022-10-17T03:59:32;4.57;;;3.67;;
46334;SDS011;32051;48.882;9.210;2022-10-17T04:02:03;10.25;;;3.83;;
46334;SDS011;32051;48.882;9.210;2022-10-17T04:04:29;12.07;;;4.38;;
46334;SDS011;32051;48.882;9.210;2022-10-17T04:06:56;13.15;;;4.25;;
46334;SDS011;32051;48.882;9.210;2022-10-17T04:09:22;10.75;;;4.10;;
46334;SDS011;32051;48.882;9.210;2022-10-17T04:11:56;14.02;;;3.85;;
46334;SDS011;32051;48.882;9.210;2022-10-17T04:14:23;14.50;;;3.88;;
46334;SDS011;32051;48.882;9.210;2022-10-17T04:16:49;7.15;;;3.42;;
46334;SDS011;32051;48.882;9.210;2022-10-17T04:19:19;15.57;;;4.38;;
46334;SDS011;32051;48.882;9.210;2022-10-17T04:21:46;3.35;;;3.15;;
46334;SDS011;32051;48.882;9.210;2022-10-17T04:24:13;4.15;;;3.60;;
46334;SDS011;32051;48.882;9.210;2022-10-17T04:26:44;5.20;;;3.53;;
46334;SDS011;32051;48.882;9.210;2022-10-17T04:29:11;9.45;;;5.05;;
46334;SDS011;32051;48.882;9.210;2022-10-17T04:31:39;14.80;;;6.10;;
46334;SDS011;32051;48.882;9.210;2022-10-17T04:34:15;23.55;;;4.32;;
46334;SDS011;32051;48.882;9.210;2022-10-17T04:36:41;26.30;;;4.65;;
46334;SDS011;32051;48.882;9.210;2022-10-17T04:39:08;7.28;;;4.53;;
46334;SDS011;32051;48.882;9.210;2022-10-17T04:41:34;10.77;;;4.40;;
46334;SDS011;32051;48.882;9.210;2022-10-17T04:44:01;10.45;;;3.60;;
46334;SDS011;32051;48.882;9.210;2022-10-17T04:46:32;9.15;;;3.67;;
46334;SDS011;32051;48.882;9.210;2022-10-17T04:48:58;7.05;;;3.60;;
46334;SDS011;32051;48.882;9.210;2022-10-17T04:51:24;6.18;;;4.28;;
46334;SDS011;32051;48.882;9.210;2022-10-17T04:54:08;7.43;;;3.53;;
46334;SDS011;32051;48.882;9.210;2022-10-17T04:56:37;6.93;;;4.15;;
46334;SDS011;32051;48.882;9.210;2022-10-17T04:59:03;5.15;;;4.18;;
46334;SDS011;32051;48.882;9.210;2022-10-17T05:01:30;18.83;;;4.13;;
46334;SDS011;32051;48.882;9.210;2022-10-17T05:03:56;12.50;;;4.82;;
46334;SDS011;32051;48.882;9.210;2022-10-17T05:06:23;7.18;;;4.28;;
46334;SDS011;32051;48.882;9.210;2022-10-17T05:09:08;11.02;;;3.78;;
46334;SDS011;32051;48.882;9.210;2022-10-17T05:11:35;15.35;;;5.07;;
46334;SDS011;32051;48.882;9.210;2022-10-17T05:14:01;12.68;;;3.92;;
46334;SDS011;32051;48.882;9.210;2022-10-17T05:16:29;7.85;;;3.58;;
46334;SDS011;32051;48.882;9.210;2022-10-17T05:18:56;4.65;;;4.07;;
46334;SDS011;32051;48.882;9.210;2022-10-17T05:21:26;8.68;;;3.85;;
46334;SDS011;32051;48.882;9.210;2022-10-17T05:23:53;10.48;;;4.55;;
46334;SDS011;32051;48.882;9.210;2022-10-17T05:26:21;6.90;;;4.05;;
46334;SDS011;32051;48.882;9.210;2022-10-17T05:28:47;12.95;;;4.07;;
46334;SDS011;32051;48.882;9.210;2022-10-17T05:31:15;21.00;;;4.85;;
46334;SDS011;32051;48.882;9.210;2022-10-17T05:33:41;3.92;;;3.58;;
46334;SDS011;32051;48.882;9.210;2022-10-17T05:36:08;5.60;;;3.70;;
46334;SDS011;32051;48.882;9.210;2022-10-17T05:38:35;9.57;;;3.65;;
46334;SDS011;32051;48.882;9.210;2022-10-17T05:41:02;8.88;;;3.63;;
46334;SDS011;32051;48.882;9.210;2022-10-17T05:43:29;15.27;;;4.28;;
46334;SDS011;32051;48.882;9.210;2022-10-17T05:45:55;6.72;;;4.10;;
46334;SDS011;32051;48.882;9.210;2022-10-17T05:48:22;11.52;;;3.60;;
46334;SDS011;32051;48.882;9.210;2022-10-17T05:50:49;9.13;;;3.70;;
46334;SDS011;32051;48.882;9.210;2022-10-17T05:55:56;21.77;;;4.13;;
46334;SDS011;32051;48.882;9.210;2022-10-17T05:58:23;5.88;;;3.47;;
46334;SDS011;32051;48.882;9.210;2022-10-17T06:00:57;9.65;;;6.15;;
46334;SDS011;32051;48.882;9.210;2022-10-17T06:03:24;15.80;;;4.70;;
46334;SDS011;32051;48.882;9.210;2022-10-17T06:05:51;16.10;;;4.63;;
46334;SDS011;32051;48.882;9.210;2022-10-17T06:08:17;9.50;;;3.58;;
46334;SDS011;32051;48.882;9.210;2022-10-17T06:10:46;11.02;;;3.92;;
46334;SDS011;32051;48.882;9.210;2022-10-17T06:13:13;12.00;;;3.67;;
46334;SDS011;32051;48.882;9.210;2022-10-17T06:15:39;23.15;;;4.20;;
46334;SDS011;32051;48.882;9.210;2022-10-17T06:18:07;7.50;;;3.83;;
46334;SDS011;32051;48.882;9.210;2022-10-17T06:20:33;11.40;;;3.38;;
46334;SDS011;32051;48.882;9.210;2022-10-17T06:23:00;14.07;;;3.97;;
46334;SDS011;32051;48.882;9.210;2022-10-17T06:25:46;9.52;;;3.92;;
46334;SDS011;32051;48.882;9.210;2022-10-17T06:28:12;17.90;;;6.00;;
46334;SDS011;32051;48.882;9.210;2022-10-17T06:30:39;11.82;;;3.53;;
46334;SDS011;32051;48.882;9.210;2022-10-17T06:33:06;10.23;;;3.60;;
46334;SDS011;32051;48.882;9.210;2022-10-17T06:35:33;8.48;;;3.97;;
46334;SDS011;32051;48.882;9.210;2022-10-17T06:37:59;7.97;;;4.13;;
46334;SDS011;32051;48.882;9.210;2022-10-17T06:40:25;13.45;;;4.18;;
46334;SDS011;32051;48.882;9.210;2022-10-17T06:42:52;9.55;;;3.22;;
46334;SDS011;32051;48.882;9.210;2022-10-17T06:45:24;5.72;;;3.67;;
46334;SDS011;32051;48.882;9.210;2022-10-17T06:47:55;13.05;;;2.85;;
46334;SDS011;32051;48.882;9.210;2022-10-17T06:50:50;15.05;;;3.40;;
46334;SDS011;32051;48.882;9.210;2022-10-17T06:53:23;7.50;;;3.20;;
46334;SDS011;32051;48.882;9.210;2022-10-17T06:55:52;32.22;;;3.35;;
46334;SDS011;32051;48.882;9.210;2022-10-17T07:01:40;16.30;;;2.55;;
46334;SDS011;32051;48.882;9.210;2022-10-17T07:04:07;12.93;;;2.75;;
46334;SDS011;32051;48.882;9.210;2022-10-17T07:06:33;6.45;;;2.95;;
46334;SDS011;32051;48.882;9.210;2022-10-17T07:09:05;9.10;;;2.05;;
46334;SDS011;32051;48.882;9.210;2022-10-17T07:11:34;4.90;;;2.58;;
46334;SDS011;32051;48.882;9.210;2022-10-17T07:14:00;14.38;;;2.75;;
46334;SDS011;32051;48.882;9.210;2022-10-17T07:16:27;22.23;;;3.15;;
46334;SDS011;32051;48.882;9.210;2022-10-17T07:19:01;8.30;;;2.83;;
46334;SDS011;32051;48.882;9.210;2022-10-17T07:21:32;53.28;;;4.07;;
46334;SDS011;32051;48.882;9.210;2022-10-17T07:23:59;4.40;;;2.28;;
46334;SDS011;32051;48.882;9.210;2022-10-17T07:26:25;18.27;;;2.63;;
46334;SDS011;32051;48.882;9.210;2022-10-17T07:28:52;11.00;;;2.63;;
46334;SDS011;32051;48.882;9.210;2022-10-17T07:31:28;17.02;;;3.20;;
46334;SDS011;32051;48.882;9.210;2022-10-17T07:33:54;13.77;;;4.28;;
46334;SDS011;32051;48.882;9.210;2022-10-17T07:36:20;11.35;;;4.10;;
46334;SDS011;32051;48.882;9.210;2022-10-17T07:38:47;18.42;;;3.35;;
46334;SDS011;32051;48.882;9.210;2022-10-17T07:41:13;19.23;;;3.33;;
46334;SDS011;32051;48.882;9.210;2022-10-17T07:43:39;15.73;;;3.25;;
46334;SDS011;32051;48.882;9.210;2022-10-17T07:46:07;15.40;;;5.25;;
46334;SDS011;32051;48.882;9.210;2022-10-17T07:48:36;6.88;;;3.90;;
46334;SDS011;32051;48.882;9.210;2022-10-17T07:51:03;10.93;;;3.85;;
46334;SDS011;32051;48.882;9.210;2022-10-17T07:53:29;11.60;;;3.53;;
46334;SDS011;32051;48.882;9.210;2022-10-17T07:55:55;16.75;;;3.03;;
46334;SDS011;32051;48.882;9.210;2022-10-17T07:58:21;5.80;;;3.88;;
46334;SDS011;32051;48.882;9.210;2022-10-17T08:00:47;17.50;;;4.03;;
46334;SDS011;32051;48.882;9.210;2022-10-17T08:03:14;12.35;;;3.67;;
46334;SDS011;32051;48.882;9.210;2022-10-17T08:05:41;9.63;;;3.33;;
46334;SDS011;32051;48.882;9.210;2022-10-17T08:08:07;19.52;;;3.35;;
46334;SDS011;32051;48.882;9.210;2022-10-17T08:10:33;11.45;;;3.92;;
46334;SDS011;32051;48.882;9.210;2022-10-17T08:12:59;10.18;;;2.67;;
46334;SDS011;32051;48.882;9.210;2022-10-17T08:15:26;6.78;;;3.28;;
46334;SDS011;32051;48.882;9.210;2022-10-17T08:17:52;9.48;;;3.15;;
46334;SDS011;32051;48.882;9.210;2022-10-17T08:20:19;12.20;;;3.72;;
46334;SDS011;32051;48.882;9.210;2022-10-17T08:22:55;7.78;;;3.05;;
46334;SDS011;32051;48.882;9.210;2022-10-17T08:25:21;11.98;;;2.72;;
46334;SDS011;32051;48.882;9.210;2022-10-17T08:27:47;7.13;;;2.83;;
46334;SDS011;32051;48.882;9.210;2022-10-17T08:30:13;19.55;;;3.22;;
46334;SDS011;32051;48.882;9.210;2022-10-17T08:32:40;12.70;;;3.15;;
46334;SDS011;32051;48.882;9.210;2022-10-17T08:35:06;2.42;;;1.75;;
46334;SDS011;32051;48.882;9.210;2022-10-17T08:37:32;6.40;;;2.22;;
46334;SDS011;32051;48.882;9.210;2022-10-17T08:39:58;14.80;;;2.75;;
46334;SDS011;32051;48.882;9.210;2022-10-17T08:47:26;16.75;;;3.20;;
46334;SDS011;32051;48.882;9.210;2022-10-17T08:49:55;8.57;;;2.47;;
46334;SDS011;32051;48.882;9.210;2022-10-17T08:52:34;2.97;;;1.80;;
46334;SDS011;32051;48.882;9.210;2022-10-17T08:55:02;5.68;;;1.63;;
46334;SDS011;32051;48.882;9.210;2022-10-17T08:57:28;11.73;;;1.90;;
46334;SDS011;32051;48.882;9.210;2022-10-17T08:59:55;3.13;;;1.70;;
46334;SDS011;32051;48.882;9.210;2022-10-17T09:07:37;7.47;;;1.65;;
46334;SDS011;32051;48.882;9.210;2022-10-17T09:18:01;3.10;;;1.58;;
46334;SDS011;32051;48.882;9.210;2022-10-17T09:20:32;7.78;;;1.50;;
46334;SDS011;32051;48.882;9.210;2022-10-17T09:23:00;4.32;;;1.08;;
46334;SDS011;32051;48.882;9.210;2022-10-17T09:25:27;4.15;;;1.20;;
46334;SDS011;32051;48.882;9.210;2022-10-17T09:27:57;4.95;;;1.40;;
46334;SDS011;32051;48.882;9.210;2022-10-17T09:32:50;5.45;;;1.20;;
46334;SDS011;32051;48.882;9.210;2022-10-17T09:35:16;9.38;;;1.50;;
46334;SDS011;32051;48.882;9.210;2022-10-17T09:37:42;4.20;;;1.38;;
46334;SDS011;32051;48.882;9.210;2022-10-17T09:40:15;1.52;;;1.20;;
46334;SDS011;32051;48.882;9.210;2022-10-17T09:42:43;7.93;;;1.48;;
46334;SDS011;32051;48.882;9.210;2022-10-17T09:45:17;1.10;;;1.00;;
46334;SDS011;32051;48.882;9.210;2022-10-17T09:47:49;5.00;;;1.20;;
46334;SDS011;32051;48.882;9.210;2022-10-17T09:52:44;4.75;;;1.20;;
46334;SDS011;32051;48.882;9.210;2022-10-17T09:55:16;1.60;;;1.48;;
46334;SDS011;32051;48.882;9.210;2022-10-17T09:58:17;4.60;;;1.58;;
46334;SDS011;32051;48.882;9.210;2022-10-17T10:00:43;5.10;;;1.20;;
46334;SDS011;32051;48.882;9.210;2022-10-17T10:05:59;4.57;;;1.25;;
46334;SDS011;32051;48.882;9.210;2022-10-17T10:08:30;9.65;;;1.20;;
46334;SDS011;32051;48.882;9.210;2022-10-17T10:11:00;1.35;;;1.25;;
46334;SDS011;32051;48.882;9.210;2022-10-17T10:13:29;1.77;;;1.02;;
46334;SDS011;32051;48.882;9.210;2022-10-17T10:16:11;3.63;;;2.22;;
46334;SDS011;32051;48.882;9.210;2022-10-17T10:18:42;4.95;;;1.35;;
46334;SDS011;32051;48.882;9.210;2022-10-17T10:21:10;8.48;;;1.23;;
46334;SDS011;32051;48.882;9.210;2022-10-17T10:23:43;6.50;;;1.40;;
46334;SDS011;32051;48.882;9.210;2022-10-17T10:26:17;7.43;;;1.48;;
46334;SDS011;32051;48.882;9.210;2022-10-17T10:31:46;10.35;;;1.45;;
46334;SDS011;32051;48.882;9.210;2022-10-17T10:34:21;6.45;;;1.20;;
46334;SDS011;32051;48.882;9.210;2022-10-17T10:39:32;6.75;;;1.48;;
46334;SDS011;32051;48.882;9.210;2022-10-17T10:42:05;8.82;;;1.38;;
46334;SDS011;32051;48.882;9.210;2022-10-17T10:44:33;3.15;;;2.53;;
46334;SDS011;32051;48.882;9.210;2022-10-17T10:47:13;6.65;;;1.80;;
46334;SDS011;32051;48.882;9.210;2022-10-17T10:49:39;4.15;;;1.38;;
46334;SDS011;32051;48.882;9.210;2022-10-17T10:52:06;1.75;;;1.20;;
46334;SDS011;32051;48.882;9.210;2022-10-17T10:54:41;3.72;;;1.58;;
46334;SDS011;32051;48.882;9.210;2022-10-17T10:57:15;5.85;;;1.75;;
46334;SDS011;32051;48.882;9.210;2022-10-17T11:03:00;11.38;;;1.40;;
46334;SDS011;32051;48.882;9.210;2022-10-17T11:05:43;5.00;;;1.83;;
46334;SDS011;32051;48.882;9.210;2022-10-17T11:14:31;9.23;;;2.05;;
46334;SDS011;32051;48.882;9.210;2022-10-17T11:21:50;3.85;;;1.60;;
46334;SDS011;32051;48.882;9.210;2022-10-17T11:27:06;9.07;;;1.30;;
46334;SDS011;32051;48.882;9.210;2022-10-17T11:29:33;9.48;;;1.15;;
46334;SDS011;32051;48.882;9.210;2022-10-17T11:32:33;9.35;;;1.38;;
46334;SDS011;32051;48.882;9.210;2022-10-17T11:34:55;6.32;;;1.80;;
46334;SDS011;32051;48.882;9.210;2022-10-17T11:37:27;8.77;;;1.17;;
46334;SDS011;32051;48.882;9.210;2022-10-17T11:39:56;4.65;;;1.02;;
46334;SDS011;32051;48.882;9.210;2022-10-17T11:42:25;13.43;;;1.30;;
46334;SDS011;32051;48.882;9.210;2022-10-17T11:44:54;7.43;;;1.30;;
46334;SDS011;32051;48.882;9.210;2022-10-17T11:49:52;7.20;;;1.20;;
46334;SDS011;32051;48.882;9.210;2022-10-17T11:52:24;2.08;;;1.00;;
46334;SDS011;32051;48.882;9.210;2022-10-17T11:54:57;4.55;;;1.35;;
46334;SDS011;32051;48.882;9.210;2022-10-17T11:59:59;4.38;;;1.58;;
46334;SDS011;32051;48.882;9.210;2022-10-17T12:02:41;5.38;;;1.48;;
46334;SDS011;32051;48.882;9.210;2022-10-17T12:10:30;8.48;;;1.63;;
46334;SDS011;32051;48.882;9.210;2022-10-17T12:15:43;8.52;;;1.30;;
46334;SDS011;32051;48.882;9.210;2022-10-17T12:18:14;7.47;;;1.13;;
46334;SDS011;32051;48.882;9.210;2022-10-17T12:20:47;3.40;;;1.30;;
46334;SDS011;32051;48.882;9.210;2022-10-17T12:23:24;2.25;;;1.00;;
46334;SDS011;32051;48.882;9.210;2022-10-17T12:25:53;7.43;;;0.90;;
46334;SDS011;32051;48.882;9.210;2022-10-17T12:33:53;0.85;;;0.75;;
46334;SDS011;32051;48.882;9.210;2022-10-17T12:38:50;6.53;;;2.22;;
46334;SDS011;32051;48.882;9.210;2022-10-17T12:44:01;5.85;;;0.82;;
46334;SDS011;32051;48.882;9.210;2022-10-17T12:46:41;3.95;;;1.10;;
46334;SDS011;32051;48.882;9.210;2022-10-17T12:52:05;14.10;;;1.10;;
46334;SDS011;32051;48.882;9.210;2022-10-17T12:54:39;1.88;;;0.70;;
46334;SDS011;32051;48.882;9.210;2022-10-17T12:57:14;4.70;;;1.05;;
46334;SDS011;32051;48.882;9.210;2022-10-17T12:59:43;3.95;;;1.08;;
46334;SDS011;32051;48.882;9.210;2022-10-17T13:02:12;5.88;;;1.10;;
46334;SDS011;32051;48.882;9.210;2022-10-17T13:07:13;5.35;;;1.27;;
46334;SDS011;32051;48.882;9.210;2022-10-17T13:09:41;3.25;;;1.40;;
46334;SDS011;32051;48.882;9.210;2022-10-17T13:12:10;8.80;;;1.70;;
46334;SDS011;32051;48.882;9.210;2022-10-17T13:14:37;8.75;;;1.30;;
46334;SDS011;32051;48.882;9.210;2022-10-17T13:17:05;3.83;;;1.15;;
46334;SDS011;32051;48.882;9.210;2022-10-17T13:19:42;1.38;;;0.82;;
46334;SDS011;32051;48.882;9.210;2022-10-17T13:22:16;1.60;;;1.10;;
46334;SDS011;32051;48.882;9.210;2022-10-17T13:24:44;3.90;;;1.30;;
46334;SDS011;32051;48.882;9.210;2022-10-17T13:27:27;2.80;;;0.98;;
46334;SDS011;32051;48.882;9.210;2022-10-17T13:29:56;3.42;;;0.88;;
46334;SDS011;32051;48.882;9.210;2022-10-17T13:32:23;3.88;;;1.20;;
46334;SDS011;32051;48.882;9.210;2022-10-17T13:35:09;4.20;;;1.83;;
46334;SDS011;32051;48.882;9.210;2022-10-17T13:37:36;4.05;;;1.75;;
46334;SDS011;32051;48.882;9.210;2022-10-17T13:40:04;4.95;;;2.13;;
46334;SDS011;32051;48.882;9.210;2022-10-17T13:42:36;3.85;;;0.95;;
46334;SDS011;32051;48.882;9.210;2022-10-17T13:45:03;5.47;;;1.42;;
46334;SDS011;32051;48.882;9.210;2022-10-17T13:47:35;5.35;;;0.80;;
46334;SDS011;32051;48.882;9.210;2022-10-17T13:50:02;3.92;;;0.95;;
46334;SDS011;32051;48.882;9.210;2022-10-17T13:52:29;10.50;;;1.30;;
46334;SDS011;32051;48.882;9.210;2022-10-17T13:55:06;15.77;;;0.95;;
46334;SDS011;32051;48.882;9.210;2022-10-17T13:57:34;2.97;;;0.98;;
46334;SDS011;32051;48.882;9.210;2022-10-17T14:00:05;11.35;;;1.55;;
46334;SDS011;32051;48.882;9.210;2022-10-17T14:02:39;11.00;;;1.48;;
46334;SDS011;32051;48.882;9.210;2022-10-17T14:05:13;2.42;;;0.95;;
46334;SDS011;32051;48.882;9.210;2022-10-17T14:07:42;4.90;;;1.27;;
46334;SDS011;32051;48.882;9.210;2022-10-17T14:12:48;11.20;;;1.25;;
46334;SDS011;32051;48.882;9.210;2022-10-17T14:15:14;4.53;;;1.30;;
46334;SDS011;32051;48.882;9.210;2022-10-17T14:17:41;1.60;;;1.02;;
46334;SDS011;32051;48.882;9.210;2022-10-17T14:20:15;4.72;;;1.05;;
46334;SDS011;32051;48.882;9.210;2022-10-17T14:22:42;3.53;;;1.25;;
46334;SDS011;32051;48.882;9.210;2022-10-17T14:27:54;13.55;;;1.10;;
46334;SDS011;32051;48.882;9.210;2022-10-17T14:32:53;1.90;;;0.80;;
46334;SDS011;32051;48.882;9.210;2022-10-17T14:35:20;3.72;;;1.20;;
46334;SDS011;32051;48.882;9.210;2022-10-17T14:37:47;3.67;;;0.80;;
46334;SDS011;32051;48.882;9.210;2022-10-17T14:40:18;8.38;;;1.38;;
46334;SDS011;32051;48.882;9.210;2022-10-17T14:42:44;4.32;;;1.17;;
46334;SDS011;32051;48.882;9.210;2022-10-17T14:45:16;1.10;;;0.98;;
46334;SDS011;32051;48.882;9.210;2022-10-17T14:47:47;5.13;;;1.00;;
46334;SDS011;32051;48.882;9.210;2022-10-17T14:52:40;6.25;;;1.13;;
46334;SDS011;32051;48.882;9.210;2022-10-17T14:55:21;3.25;;;0.80;;
46334;SDS011;32051;48.882;9.210;2022-10-17T14:57:47;8.52;;;1.25;;
46334;SDS011;32051;48.882;9.210;2022-10-17T15:00:14;3.05;;;1.25;;
46334;SDS011;32051;48.882;9.210;2022-10-17T15:02:41;4.07;;;1.40;;
46334;SDS011;32051;48.882;9.210;2022-10-17T15:05:07;4.10;;;1.50;;
46334;SDS011;32051;48.882;9.210;2022-10-17T15:07:34;10.90;;;1.30;;
46334;SDS011;32051;48.882;9.210;2022-10-17T15:10:00;1.92;;;1.27;;
46334;SDS011;32051;48.882;9.210;2022-10-17T15:12:26;7.10;;;2.50;;
46334;SDS011;32051;48.882;9.210;2022-10-17T15:14:52;8.70;;;1.27;;
46334;SDS011;32051;48.882;9.210;2022-10-17T15:19:47;9.48;;;1.20;;
46334;SDS011;32051;48.882;9.210;2022-10-17T15:22:14;5.10;;;1.23;;
46334;SDS011;32051;48.882;9.210;2022-10-17T15:24:42;8.75;;;1.20;;
46334;SDS011;32051;48.882;9.210;2022-10-17T15:27:18;5.32;;;1.15;;
46334;SDS011;32051;48.882;9.210;2022-10-17T15:29:44;1.25;;;1.15;;
46334;SDS011;32051;48.882;9.210;2022-10-17T15:32:10;5.47;;;1.25;;
46334;SDS011;32051;48.882;9.210;2022-10-17T15:34:37;7.57;;;1.20;;
46334;SDS011;32051;48.882;9.210;2022-10-17T15:37:04;1.48;;;1.38;;
46334;SDS011;32051;48.882;9.210;2022-10-17T15:39:30;3.88;;;1.67;;
46334;SDS011;32051;48.882;9.210;2022-10-17T15:41:56;6.00;;;1.10;;
46334;SDS011;32051;48.882;9.210;2022-10-17T15:44:23;4.35;;;1.20;;
46334;SDS011;32051;48.882;9.210;2022-10-17T15:46:50;8.65;;;1.20;;
46334;SDS011;32051;48.882;9.210;2022-10-17T15:49:16;6.93;;;1.70;;
46334;SDS011;32051;48.882;9.210;2022-10-17T15:51:43;8.00;;;1.85;;
46334;SDS011;32051;48.882;9.210;2022-10-17T15:54:10;2.60;;;1.10;;
46334;SDS011;32051;48.882;9.210;2022-10-17T15:56:37;6.47;;;1.20;;
46334;SDS011;32051;48.882;9.210;2022-10-17T15:59:04;5.15;;;1.38;;
46334;SDS011;32051;48.882;9.210;2022-10-17T16:01:32;3.28;;;1.35;;
46334;SDS011;32051;48.882;9.210;2022-10-17T16:03:58;8.50;;;1.70;;
46334;SDS011;32051;48.882;9.210;2022-10-17T16:06:24;9.90;;;1.30;;
46334;SDS011;32051;48.882;9.210;2022-10-17T16:08:51;8.05;;;1.42;;
46334;SDS011;32051;48.882;9.210;2022-10-17T16:11:30;6.07;;;1.40;;
46334;SDS011;32051;48.882;9.210;2022-10-17T16:13:58;6.25;;;1.60;;
46334;SDS011;32051;48.882;9.210;2022-10-17T16:16:24;6.47;;;1.50;;
46334;SDS011;32051;48.882;9.210;2022-10-17T16:18:50;2.88;;;1.67;;
46334;SDS011;32051;48.882;9.210;2022-10-17T16:21:24;4.97;;;1.35;;
46334;SDS011;32051;48.882;9.210;2022-10-17T16:23:51;9.68;;;1.88;;
46334;SDS011;32051;48.882;9.210;2022-10-17T16:26:17;9.07;;;1.25;;
46334;SDS011;32051;48.882;9.210;2022-10-17T16:28:44;5.28;;;1.63;;
46334;SDS011;32051;48.882;9.210;2022-10-17T16:31:17;2.80;;;1.88;;
46334;SDS011;32051;48.882;9.210;2022-10-17T16:33:43;6.82;;;1.50;;
46334;SDS011;32051;48.882;9.210;2022-10-17T16:36:09;4.15;;;2.40;;
46334;SDS011;32051;48.882;9.210;2022-10-17T16:38:35;5.20;;;2.05;;
46334;SDS011;32051;48.882;9.210;2022-10-17T16:41:02;2.45;;;1.58;;
46334;SDS011;32051;48.882;9.210;2022-10-17T16:43:28;10.75;;;2.17;;
46334;SDS011;32051;48.882;9.210;2022-10-17T16:46:01;10.27;;;1.60;;
46334;SDS011;32051;48.882;9.210;2022-10-17T16:48:27;8.18;;;1.27;;
46334;SDS011;32051;48.882;9.210;2022-10-17T16:50:53;1.77;;;1.52;;
46334;SDS011;32051;48.882;9.210;2022-10-17T16:53:20;5.30;;;1.85;;
46334;SDS011;32051;48.882;9.210;2022-10-17T16:55:57;3.25;;;1.73;;
46334;SDS011;32051;48.882;9.210;2022-10-17T16:58:23;1.70;;;1.60;;
46334;SDS011;32051;48.882;9.210;2022-10-17T17:00:51;4.97;;;2.00;;
46334;SDS011;32051;48.882;9.210;2022-10-17T17:03:17;9.88;;;1.58;;
46334;SDS011;32051;48.882;9.210;2022-10-17T17:05:48;3.45;;;1.40;;
46334;SDS011;32051;48.882;9.210;2022-10-17T17:08:15;10.18;;;1.92;;